Time;durP1;ratioP1;P1;durP2;ratioP2;P2;SDS_P1;SDS_P2;PMS_P1;PMS_P2;Temp;Humidity;BMP_temperature;BMP_pressure;BME280_temperature;BME280_humidity;BME280_pressure;Samples;Min_cycle;Max_cycle;Signal;HPM_P1;HPM_P2
2023/01/11 00:01:05;;;;;;;19.35;9.88;;;7.40;99.90;;;;;;5029165;28;20041;-46
2023/01/11 00:03:31;;;;;;;15.90;9.80;;;7.50;99.90;;;;;;5047187;28;20124;-45
2023/01/11 00:05:58;;;;;;;18.95;9.82;;;7.40;99.90;;;;;;5046881;28;20041;-45
2023/01/11 00:08:27;;;;;;;15.00;9.23;;;8.20;99.90;;;;;;5046805;28;20063;-48
2023/01/11 00:10:54;;;;;;;20.30;10.68;;;7.90;99.90;;;;;;5046720;28;20114;-45
2023/01/11 00:13:19;;;;;;;11.63;7.85;;;7.60;99.90;;;;;;5046829;28;20657;-44
2023/01/11 00:15:45;;;;;;;14.35;8.98;;;7.70;99.90;;;;;;5046681;28;20097;-45
2023/01/11 00:18:11;;;;;;;17.20;9.75;;;7.70;99.90;;;;;;5046523;28;20064;-44
2023/01/11 00:20:41;;;;;;;15.77;8.75;;;7.60;99.90;;;;;;5046914;28;20395;-45
2023/01/11 00:23:07;;;;;;;14.52;9.23;;;7.60;99.90;;;;;;5046981;28;20036;-45
2023/01/11 00:25:32;;;;;;;13.07;8.93;;;7.70;99.90;;;;;;5046636;28;20041;-45
2023/01/11 00:27:58;;;;;;;13.90;9.07;;;8.60;99.90;;;;;;5046382;28;20048;-45
2023/01/11 00:30:24;;;;;;;13.35;8.82;;;7.70;99.90;;;;;;5046212;28;20091;-46
2023/01/11 00:32:57;;;;;;;15.55;9.50;;;7.80;99.90;;;;;;5046459;28;20037;-45
2023/01/11 00:35:24;;;;;;;17.40;9.90;;;7.80;99.90;;;;;;5045576;28;20037;-44
2023/01/11 00:37:52;;;;;;;15.43;8.68;;;7.70;99.90;;;;;;5046706;28;20052;-46
2023/01/11 00:40:18;;;;;;;14.35;9.50;;;7.80;99.90;;;;;;5046904;28;20574;-45
2023/01/11 00:48:12;;;;;;;17.10;9.23;;;7.90;99.90;;;;;;5046201;28;20045;-45
2023/01/11 00:50:39;;;;;;;14.73;8.70;;;8.60;99.90;;;;;;5050066;28;20051;-45
2023/01/11 00:53:07;;;;;;;13.98;9.30;;;8.40;99.90;;;;;;5050753;28;20120;-45
2023/01/11 00:55:33;;;;;;;14.02;8.68;;;8.30;99.90;;;;;;5050273;28;20465;-47
2023/01/11 00:57:59;;;;;;;13.73;8.70;;;8.00;99.90;;;;;;5050489;28;20072;-45
2023/01/11 01:00:26;;;;;;;13.68;8.55;;;8.00;99.90;;;;;;5050339;28;20124;-44
2023/01/11 01:02:52;;;;;;;14.70;9.13;;;8.00;99.90;;;;;;5049861;28;20040;-44
2023/01/11 01:05:18;;;;;;;13.45;8.15;;;8.00;99.90;;;;;;5050600;28;20040;-44
2023/01/11 01:07:44;;;;;;;13.80;8.57;;;8.10;99.90;;;;;;5050497;28;20506;-45
2023/01/11 01:10:12;;;;;;;17.33;9.27;;;8.00;99.90;;;;;;5050636;28;20064;-46
2023/01/11 01:15:23;;;;;;;13.43;7.35;;;8.10;99.90;;;;;;5050736;28;20395;-45
2023/01/11 01:17:53;;;;;;;15.90;8.85;;;8.40;99.90;;;;;;5050433;28;20045;-44
2023/01/11 01:20:20;;;;;;;14.60;8.05;;;8.20;99.90;;;;;;5050682;28;20073;-45
2023/01/11 01:22:46;;;;;;;13.57;8.52;;;8.20;99.90;;;;;;5050321;28;20051;-45
2023/01/11 01:25:11;;;;;;;13.68;8.20;;;8.20;99.90;;;;;;5050734;28;20422;-45
2023/01/11 01:27:37;;;;;;;13.75;8.40;;;8.90;99.90;;;;;;5050081;28;20040;-46
2023/01/11 01:30:04;;;;;;;15.00;8.10;;;8.20;99.90;;;;;;5050246;28;20051;-45
2023/01/11 01:32:30;;;;;;;15.57;8.70;;;8.30;99.90;;;;;;5049850;28;20524;-45
2023/01/11 01:34:56;;;;;;;14.18;7.70;;;8.50;99.90;;;;;;5049644;28;20171;-47
2023/01/11 01:37:22;;;;;;;15.43;8.57;;;8.30;99.90;;;;;;5049988;28;20080;-45
2023/01/11 01:39:47;;;;;;;14.10;8.40;;;8.30;99.90;;;;;;5049951;28;20217;-46
2023/01/11 01:42:15;;;;;;;15.30;8.45;;;8.40;99.90;;;;;;5050034;28;20509;-44
2023/01/11 01:44:58;;;;;;;12.75;7.95;;;9.60;99.90;;;;;;5049368;28;20080;-45
2023/01/11 01:47:39;;;;;;;13.75;8.00;;;8.40;99.90;;;;;;5049941;28;20040;-44
2023/01/11 01:50:13;;;;;;;18.92;8.63;;;8.40;99.90;;;;;;5049891;28;20052;-44
2023/01/11 01:52:40;;;;;;;13.35;8.40;;;8.40;99.90;;;;;;5049752;28;20045;-45
2023/01/11 01:55:09;;;;;;;14.57;7.88;;;7.70;99.90;;;;;;5049640;28;20433;-45
2023/01/11 01:57:38;;;;;;;12.32;7.60;;;8.40;99.90;;;;;;5049091;28;20558;-45
2023/01/11 02:00:07;;;;;;;13.95;8.23;;;8.50;99.90;;;;;;5049465;28;20032;-45
2023/01/11 02:02:35;;;;;;;11.88;7.60;;;8.50;99.90;;;;;;5048803;28;20545;-44
2023/01/11 02:05:02;;;;;;;14.02;8.65;;;8.40;99.90;;;;;;5049296;28;20041;-45
2023/01/11 02:07:33;;;;;;;14.23;7.70;;;8.50;99.90;;;;;;5049247;28;20040;-45
2023/01/11 02:10:18;;;;;;;10.73;7.00;;;8.70;99.90;;;;;;5049121;28;20041;-45
2023/01/11 02:13:08;;;;;;;14.05;7.68;;;8.50;99.90;;;;;;5049159;28;20049;-45
2023/01/11 02:15:34;;;;;;;16.23;7.38;;;8.60;99.90;;;;;;5049278;28;20045;-45
2023/01/11 02:18:00;;;;;;;13.82;6.32;;;8.70;99.90;;;;;;5048821;28;20203;-44
2023/01/11 02:20:53;;;;;;;10.20;7.03;;;8.60;99.90;;;;;;5048903;28;20131;-46
2023/01/11 02:23:33;;;;;;;12.50;7.10;;;8.70;99.90;;;;;;5048802;28;20044;-46
2023/01/11 02:26:17;;;;;;;11.07;6.43;;;8.70;99.90;;;;;;5048333;28;20067;-45
2023/01/11 02:28:43;;;;;;;12.32;6.63;;;8.70;99.90;;;;;;5048344;28;20043;-45
2023/01/11 02:31:27;;;;;;;10.88;6.82;;;8.90;99.90;;;;;;5030343;28;20055;-46
2023/01/11 02:33:56;;;;;;;13.63;6.85;;;8.70;99.90;;;;;;5047850;28;20052;-44
2023/01/11 02:36:47;;;;;;;12.02;6.30;;;8.80;99.90;;;;;;5048125;28;20052;-46
2023/01/11 02:39:31;;;;;;;14.70;7.85;;;8.80;99.90;;;;;;5048190;28;20049;-45
2023/01/11 02:45:03;;;;;;;11.70;6.63;;;8.90;99.90;;;;;;5048028;28;20055;-44
2023/01/11 02:47:50;;;;;;;11.35;6.30;;;8.90;99.90;;;;;;5048564;28;20036;-44
2023/01/11 02:50:28;;;;;;;10.55;6.65;;;8.90;99.90;;;;;;5048566;28;20044;-44
2023/01/11 02:53:14;;;;;;;10.27;6.32;;;9.00;99.90;;;;;;5047991;28;20379;-44
2023/01/11 02:55:46;;;;;;;11.45;6.80;;;9.00;99.90;;;;;;5047955;28;20044;-44
2023/01/11 02:58:14;;;;;;;12.25;6.55;;;9.40;99.90;;;;;;5047804;28;20073;-44
2023/01/11 03:00:41;;;;;;;10.68;6.20;;;9.00;99.90;;;;;;5048012;28;20047;-45
2023/01/11 03:03:14;;;;;;;9.63;5.57;;;9.10;99.90;;;;;;5047933;28;20052;-44
2023/01/11 03:05:56;;;;;;;10.27;5.70;;;9.40;99.90;;;;;;5048020;28;20037;-44
2023/01/11 03:08:34;;;;;;;9.88;5.57;;;9.10;99.90;;;;;;5047965;28;20041;-44
2023/01/11 03:12:50;;;;;;;9.93;5.28;;;9.10;99.90;;;;;;5047283;28;20056;-45
2023/01/11 03:14:44;;;;;;;8.63;5.45;;;9.10;99.90;;;;;;5047849;28;20057;-45
2023/01/11 03:17:38;;;;;;;9.18;5.25;;;9.40;99.90;;;;;;5046406;28;20410;-45
2023/01/11 03:20:13;;;;;;;8.38;4.93;;;9.20;99.90;;;;;;5047916;28;20048;-45
2023/01/11 03:23:03;;;;;;;9.32;5.05;;;9.20;99.90;;;;;;5047810;28;20045;-46
2023/01/11 03:25:53;;;;;;;7.50;4.22;;;9.20;99.90;;;;;;5047868;28;20036;-45
2023/01/11 03:28:37;;;;;;;7.45;4.43;;;9.20;99.90;;;;;;5047382;28;20047;-45
2023/01/11 03:31:17;;;;;;;10.18;5.57;;;9.20;99.90;;;;;;5047243;28;20049;-43
2023/01/11 03:34:01;;;;;;;10.15;5.28;;;9.30;99.90;;;;;;5047744;28;20056;-43
2023/01/11 03:36:53;;;;;;;10.10;5.00;;;9.30;99.90;;;;;;5047560;28;20128;-44
2023/01/11 03:39:46;;;;;;;13.02;5.40;;;9.30;99.90;;;;;;5047565;28;20044;-43
2023/01/11 03:42:16;;;;;;;8.00;4.53;;;9.30;99.90;;;;;;5048182;28;20045;-43
2023/01/11 03:44:51;;;;;;;8.13;4.55;;;9.50;99.90;;;;;;5047609;28;20048;-43
2023/01/11 03:47:21;;;;;;;9.05;4.55;;;9.30;99.90;;;;;;5047652;28;20041;-44
2023/01/11 03:50:17;;;;;;;8.05;3.40;;;9.30;99.90;;;;;;5029418;28;20372;-44
2023/01/11 03:52:44;;;;;;;6.72;3.80;;;9.40;99.90;;;;;;5034827;28;20154;-45
2023/01/11 03:55:13;;;;;;;7.05;3.85;;;9.40;99.90;;;;;;5047268;28;20045;-43
2023/01/11 03:57:43;;;;;;;6.25;3.03;;;9.60;99.90;;;;;;5047201;28;20056;-43
2023/01/11 04:00:10;;;;;;;7.93;3.30;;;9.40;99.90;;;;;;5046816;28;20670;-45
2023/01/11 04:02:39;;;;;;;6.15;2.50;;;9.40;99.90;;;;;;5047169;28;20594;-44
2023/01/11 04:05:06;;;;;;;5.80;2.65;;;9.50;99.90;;;;;;5047369;28;20052;-43
2023/01/11 04:07:32;;;;;;;4.80;2.08;;;9.50;99.90;;;;;;5047587;28;20037;-44
2023/01/11 04:09:58;;;;;;;5.25;1.90;;;9.50;99.90;;;;;;5046771;28;20102;-45
2023/01/11 04:12:24;;;;;;;4.35;1.67;;;9.50;99.90;;;;;;5047586;28;20048;-45
2023/01/11 04:14:50;;;;;;;2.90;1.20;;;9.50;99.90;;;;;;5047217;28;20059;-44
2023/01/11 04:17:16;;;;;;;2.40;1.00;;;9.50;99.90;;;;;;5047432;28;20045;-43
2023/01/11 04:19:41;;;;;;;2.97;1.10;;;9.60;99.90;;;;;;5047193;28;20060;-43
2023/01/11 04:22:07;;;;;;;2.83;0.90;;;9.50;99.90;;;;;;5046341;28;20098;-44
2023/01/11 04:24:33;;;;;;;1.77;0.50;;;9.60;99.90;;;;;;5046177;28;20406;-44
2023/01/11 04:26:59;;;;;;;2.35;0.80;;;9.50;99.90;;;;;;5046446;28;20120;-44
2023/01/11 04:29:24;;;;;;;4.60;0.50;;;9.80;99.90;;;;;;5047226;28;20037;-44
2023/01/11 04:31:50;;;;;;;2.03;0.43;;;9.70;99.90;;;;;;5047045;28;20623;-44
2023/01/11 04:34:16;;;;;;;1.20;0.40;;;7.40;99.90;;;;;;5046625;28;20592;-43
2023/01/11 04:36:41;;;;;;;1.30;0.40;;;9.90;99.90;;;;;;5046800;28;20080;-46
2023/01/11 04:39:10;;;;;;;3.72;0.70;;;9.70;99.90;;;;;;5046310;28;20049;-45
2023/01/11 04:44:21;;;;;;;3.35;0.90;;;9.70;99.90;;;;;;5046662;28;20136;-45
2023/01/11 04:46:47;;;;;;;3.08;1.38;;;9.80;99.90;;;;;;5046709;28;20131;-44
2023/01/11 04:49:13;;;;;;;7.60;2.22;;;9.80;99.90;;;;;;5046930;28;20036;-46
2023/01/11 04:51:39;;;;;;;7.25;2.65;;;9.80;99.90;;;;;;5046796;28;20045;-46
2023/01/11 04:54:05;;;;;;;6.75;3.20;;;9.80;99.90;;;;;;5046467;28;20049;-49
2023/01/11 04:56:31;;;;;;;10.18;4.00;;;9.90;99.90;;;;;;5046477;28;20052;-45
2023/01/11 04:58:57;;;;;;;9.73;4.15;;;9.80;99.90;;;;;;5045908;28;20036;-47
2023/01/11 05:01:22;;;;;;;16.15;4.85;;;9.80;99.90;;;;;;5046359;28;20124;-48
2023/01/11 05:03:48;;;;;;;13.40;4.75;;;10.10;99.90;;;;;;5045975;28;20087;-44
2023/01/11 05:06:14;;;;;;;13.75;5.75;;;9.90;99.90;;;;;;5046446;28;20041;-43
2023/01/11 05:08:44;;;;;;;16.02;5.60;;;10.00;99.90;;;;;;5046969;28;20538;-46
2023/01/11 05:11:10;;;;;;;16.92;4.68;;;10.00;99.90;;;;;;5044993;28;20087;-44
2023/01/11 05:13:41;;;;;;;14.27;5.03;;;9.90;99.90;;;;;;5046560;28;20049;-43
2023/01/11 05:16:16;;;;;;;13.40;5.78;;;10.20;99.90;;;;;;5046396;28;20156;-45
2023/01/11 05:18:43;;;;;;;15.32;4.93;;;10.00;99.90;;;;;;5046576;28;20542;-44
2023/01/11 05:21:11;;;;;;;20.70;5.88;;;10.00;99.90;;;;;;5046495;28;20065;-44
2023/01/11 05:23:38;;;;;;;17.88;4.72;;;10.00;99.90;;;;;;5045849;28;20055;-44
2023/01/11 05:26:06;;;;;;;16.55;4.72;;;10.10;99.90;;;;;;5046316;28;20041;-45
2023/01/11 05:28:32;;;;;;;22.30;4.90;;;10.00;99.90;;;;;;5046547;28;20033;-44
2023/01/11 05:30:58;;;;;;;21.27;5.45;;;10.00;99.90;;;;;;5046108;28;20049;-45
2023/01/11 05:33:23;;;;;;;20.27;6.55;;;10.00;99.90;;;;;;5046883;28;20053;-46
2023/01/11 05:35:49;;;;;;;21.45;5.15;;;10.00;99.90;;;;;;5049179;28;20052;-44
2023/01/11 05:38:15;;;;;;;22.63;5.45;;;10.00;99.90;;;;;;5050298;28;20753;-45
2023/01/11 05:40:40;;;;;;;27.63;6.35;;;9.90;99.90;;;;;;5049842;28;20402;-44
2023/01/11 05:43:06;;;;;;;28.92;6.85;;;9.90;99.90;;;;;;5049459;28;20049;-44
2023/01/11 05:45:32;;;;;;;23.58;4.80;;;9.90;99.90;;;;;;5049728;28;20119;-44
2023/01/11 05:47:58;;;;;;;22.45;4.10;;;9.90;99.90;;;;;;5049356;28;20045;-44
2023/01/11 05:50:24;;;;;;;29.27;5.50;;;9.80;99.90;;;;;;5049595;28;20044;-44
2023/01/11 05:52:50;;;;;;;23.88;4.68;;;10.10;99.90;;;;;;5049327;28;20044;-46
2023/01/11 05:55:16;;;;;;;18.70;3.85;;;9.80;99.90;;;;;;5049277;28;20044;-45
2023/01/11 05:57:43;;;;;;;26.33;5.50;;;9.80;99.90;;;;;;5049357;28;20380;-45
2023/01/11 06:00:10;;;;;;;20.77;4.47;;;9.70;99.90;;;;;;5049429;28;20094;-44
2023/01/11 06:02:36;;;;;;;24.67;4.00;;;9.70;99.90;;;;;;5049416;28;20045;-45
2023/01/11 06:05:02;;;;;;;26.33;5.90;;;9.70;99.90;;;;;;5049374;28;20049;-45
2023/01/11 06:07:28;;;;;;;32.75;4.20;;;9.70;99.90;;;;;;5049757;28;20037;-45
2023/01/11 06:09:53;;;;;;;28.92;3.97;;;9.90;99.90;;;;;;5049232;28;20055;-46
2023/01/11 06:12:19;;;;;;;31.58;4.35;;;9.60;99.90;;;;;;5049406;28;20052;-44
2023/01/11 06:14:44;;;;;;;37.70;4.35;;;9.50;99.90;;;;;;5049206;28;20140;-45
2023/01/11 06:17:10;;;;;;;26.30;4.03;;;9.50;99.90;;;;;;5048398;28;20094;-44
2023/01/11 06:19:36;;;;;;;28.25;3.35;;;9.40;99.90;;;;;;5048901;28;20094;-44
2023/01/11 06:22:01;;;;;;;23.42;3.38;;;9.40;99.90;;;;;;5048904;28;20407;-44
2023/01/11 06:24:27;;;;;;;23.38;2.75;;;9.80;99.90;;;;;;5048434;28;20073;-45
2023/01/11 06:26:53;;;;;;;30.73;5.90;;;9.40;99.90;;;;;;5049061;28;20044;-43
2023/01/11 06:29:19;;;;;;;31.90;3.88;;;9.40;99.90;;;;;;5048929;28;20069;-44
2023/01/11 06:31:45;;;;;;;19.58;3.58;;;9.50;99.90;;;;;;5048686;28;20087;-45
2023/01/11 06:34:11;;;;;;;29.58;5.20;;;9.40;99.90;;;;;;5048701;28;20049;-43
2023/01/11 06:36:37;;;;;;;29.20;5.28;;;9.40;99.90;;;;;;5049196;28;20056;-44
2023/01/11 06:39:03;;;;;;;29.38;4.32;;;9.30;99.90;;;;;;5048858;28;20045;-44
2023/01/11 06:41:29;;;;;;;23.85;3.78;;;9.50;99.90;;;;;;5048770;28;20518;-44
2023/01/11 06:43:55;;;;;;;26.38;4.38;;;9.40;99.90;;;;;;5048875;28;20513;-45
2023/01/11 06:46:21;;;;;;;28.35;4.47;;;9.40;99.90;;;;;;5048072;28;20041;-44
2023/01/11 06:48:47;;;;;;;29.48;4.18;;;9.30;99.90;;;;;;5047938;28;20474;-47
2023/01/11 06:51:14;;;;;;;32.85;4.40;;;9.30;99.90;;;;;;5048086;28;20051;-44
2023/01/11 06:53:41;;;;;;;20.35;4.53;;;7.80;99.90;;;;;;5048673;28;20040;-45
2023/01/11 06:56:11;;;;;;;31.08;4.82;;;9.30;99.90;;;;;;5048541;28;20045;-44
2023/01/11 06:58:37;;;;;;;36.75;5.30;;;9.70;99.90;;;;;;5048590;28;20055;-44
2023/01/11 07:01:03;;;;;;;28.33;5.25;;;9.60;99.90;;;;;;5048230;28;20067;-44
2023/01/11 07:03:29;;;;;;;46.42;4.57;;;9.30;99.90;;;;;;5048064;28;20049;-44
2023/01/11 07:05:56;;;;;;;27.92;3.53;;;9.20;99.90;;;;;;5048495;28;20525;-44
2023/01/11 07:08:22;;;;;;;35.08;4.13;;;9.20;99.90;;;;;;5047832;28;20044;-45
2023/01/11 07:10:48;;;;;;;32.50;4.63;;;9.20;99.90;;;;;;5047987;28;20114;-44
2023/01/11 07:13:17;;;;;;;23.02;2.70;;;9.10;99.90;;;;;;5048089;28;20426;-45
2023/01/11 07:15:44;;;;;;;35.28;4.22;;;9.00;99.90;;;;;;5029891;28;20929;-44
2023/01/11 07:18:10;;;;;;;34.83;3.95;;;8.90;99.90;;;;;;5047372;28;20462;-44
2023/01/11 07:20:36;;;;;;;31.30;3.15;;;8.80;99.90;;;;;;5047912;28;20039;-44
2023/01/11 07:23:02;;;;;;;28.75;3.83;;;8.80;99.90;;;;;;5048387;28;20045;-43
2023/01/11 07:25:28;;;;;;;26.00;3.00;;;8.70;99.90;;;;;;5030117;28;20202;-43
2023/01/11 07:27:59;;;;;;;23.58;2.72;;;8.80;99.90;;;;;;5048051;28;20047;-44
2023/01/11 07:30:26;;;;;;;28.67;3.72;;;8.60;99.90;;;;;;5047522;28;20497;-45
2023/01/11 07:32:52;;;;;;;19.60;3.35;;;8.80;99.90;;;;;;5047851;28;20115;-47
2023/01/11 07:35:17;;;;;;;22.20;2.90;;;8.70;99.90;;;;;;5047822;28;21027;-45
2023/01/11 07:37:44;;;;;;;18.95;3.47;;;8.80;99.90;;;;;;5047529;28;20045;-45
2023/01/11 07:40:11;;;;;;;26.27;2.90;;;8.90;99.90;;;;;;5047279;28;20091;-45
2023/01/11 07:45:21;;;;;;;25.67;3.22;;;9.20;99.90;;;;;;5046923;28;20049;-44
2023/01/11 07:47:51;;;;;;;26.33;2.85;;;8.70;99.90;;;;;;5046533;28;20041;-45
2023/01/11 07:50:17;;;;;;;24.90;2.35;;;8.70;99.90;;;;;;5047099;28;20101;-45
2023/01/11 07:52:48;;;;;;;27.48;2.75;;;8.80;99.90;;;;;;5046928;28;20048;-45
2023/01/11 07:55:15;;;;;;;17.33;2.95;;;8.70;99.90;;;;;;5046824;28;20803;-44
2023/01/11 07:57:40;;;;;;;18.60;3.00;;;8.70;99.90;;;;;;5046992;28;20163;-43
2023/01/11 08:00:07;;;;;;;34.58;3.45;;;8.70;99.90;;;;;;5047097;28;20127;-45
2023/01/11 08:02:33;;;;;;;29.85;2.95;;;8.80;99.90;;;;;;5028484;28;20437;-46
2023/01/11 08:04:58;;;;;;;24.23;3.00;;;8.80;99.90;;;;;;5046909;28;20049;-44
2023/01/11 08:07:24;;;;;;;34.25;3.47;;;8.90;99.90;;;;;;5046706;28;20075;-45
2023/01/11 08:09:50;;;;;;;33.90;3.83;;;8.90;99.90;;;;;;5046524;28;20051;-44
2023/01/11 08:15:00;;;;;;;24.25;3.38;;;8.90;99.90;;;;;;5046525;28;20133;-44
2023/01/11 08:17:25;;;;;;;24.00;2.78;;;8.90;99.90;;;;;;5045483;28;20548;-45
2023/01/11 08:19:51;;;;;;;24.25;4.07;;;9.00;99.90;;;;;;5046184;28;20094;-44
2023/01/11 08:22:17;;;;;;;24.10;3.80;;;9.30;99.90;;;;;;5045740;28;20410;-45
2023/01/11 08:24:43;;;;;;;32.28;4.65;;;9.20;99.90;;;;;;5045812;28;20041;-44
2023/01/11 08:27:08;;;;;;;23.33;3.70;;;8.80;99.90;;;;;;5045330;28;20091;-45
2023/01/11 08:29:34;;;;;;;25.15;3.78;;;9.00;99.90;;;;;;5045609;28;20033;-44
2023/01/11 08:32:01;;;;;;;25.10;3.65;;;8.90;99.90;;;;;;5045753;28;20049;-45
2023/01/11 08:34:27;;;;;;;21.63;4.38;;;9.00;99.90;;;;;;5027391;28;20106;-45
2023/01/11 08:36:56;;;;;;;27.90;3.15;;;8.90;99.90;;;;;;5045578;28;20870;-45
2023/01/11 08:39:23;;;;;;;17.63;2.55;;;8.80;99.90;;;;;;5045687;28;20040;-44
2023/01/11 08:41:48;;;;;;;25.65;2.60;;;8.80;99.90;;;;;;5045985;28;20049;-46
2023/01/11 08:44:15;;;;;;;19.20;2.85;;;8.70;99.90;;;;;;5044586;28;20057;-45
2023/01/11 08:46:42;;;;;;;26.85;2.60;;;8.70;99.90;;;;;;5045016;28;20044;-43
2023/01/11 08:49:11;;;;;;;15.32;2.63;;;8.90;99.90;;;;;;5045315;28;20131;-47
2023/01/11 08:51:38;;;;;;;17.08;1.95;;;8.40;99.90;;;;;;5045253;28;20047;-47
2023/01/11 08:54:06;;;;;;;16.17;1.88;;;8.20;99.90;;;;;;5027648;28;20053;-45
2023/01/11 08:56:32;;;;;;;24.35;2.33;;;8.10;99.90;;;;;;5045082;28;20147;-45
2023/01/11 08:58:57;;;;;;;15.45;2.75;;;8.00;99.90;;;;;;5045469;28;20577;-45
2023/01/11 09:01:23;;;;;;;11.40;1.75;;;7.90;99.90;;;;;;5045165;28;20044;-44
2023/01/11 09:03:49;;;;;;;15.68;2.13;;;8.00;99.90;;;;;;5045884;28;20052;-45
2023/01/11 09:06:14;;;;;;;17.70;1.80;;;7.80;99.90;;;;;;5045311;28;20049;-44
2023/01/11 09:08:41;;;;;;;22.38;2.50;;;7.70;99.90;;;;;;5045154;28;20037;-45
2023/01/11 09:11:52;;;;;;;10.00;1.10;;;7.50;99.90;;;;;;5010495;28;1090471;-45
2023/01/11 09:13:52;;;;;;;13.10;1.33;;;7.70;99.90;;;;;;5050341;28;20056;-44
2023/01/11 09:16:18;;;;;;;16.52;1.63;;;7.60;99.90;;;;;;5031753;28;20049;-45
2023/01/11 09:18:44;;;;;;;12.18;1.98;;;7.60;99.90;;;;;;5050311;28;20080;-45
2023/01/11 09:21:09;;;;;;;18.35;1.90;;;7.60;99.90;;;;;;5050198;28;20049;-45
2023/01/11 09:23:36;;;;;;;12.02;1.70;;;7.60;99.90;;;;;;5032522;28;20048;-45
2023/01/11 09:26:02;;;;;;;19.17;2.60;;;7.60;99.90;;;;;;5027225;28;20045;-45
2023/01/11 09:28:27;;;;;;;12.82;1.17;;;8.20;99.90;;;;;;5022430;28;20051;-45
2023/01/11 09:30:53;;;;;;;14.73;1.55;;;7.60;99.90;;;;;;5025659;28;20045;-48
2023/01/11 09:33:19;;;;;;;20.83;1.95;;;7.90;99.90;;;;;;5008868;28;20057;-46
2023/01/11 09:35:45;;;;;;;11.38;1.20;;;7.40;99.90;;;;;;5026593;28;20505;-45
2023/01/11 09:38:11;;;;;;;17.33;1.70;;;8.10;99.90;;;;;;5026678;28;20038;-40
2023/01/11 09:41:10;;;;;;;13.80;1.33;;;7.70;99.90;;;;;;5021218;28;20049;-39
2023/01/11 09:43:44;;;;;;;16.20;1.52;;;7.60;99.90;;;;;;5041410;28;20132;-42
2023/01/11 09:46:12;;;;;;;10.68;2.55;;;7.90;99.90;;;;;;5044647;28;20063;-43
2023/01/11 09:48:49;;;;;;;16.20;1.50;;;7.80;99.90;;;;;;5026631;28;20053;-45
2023/01/11 09:51:15;;;;;;;13.88;2.13;;;7.50;99.90;;;;;;5045483;28;20399;-42
2023/01/11 09:53:48;;;;;;;15.57;1.10;;;7.70;99.90;;;;;;5045234;28;20093;-44
2023/01/11 09:56:23;;;;;;;13.00;1.92;;;7.20;99.90;;;;;;5027298;28;20639;-47
2023/01/11 09:59:01;;;;;;;16.23;1.63;;;8.20;99.90;;;;;;5044013;28;20044;-40
2023/01/11 10:01:45;;;;;;;14.93;1.63;;;7.30;99.90;;;;;;5044704;28;20052;-40
2023/01/11 10:04:48;;;;;;;12.88;1.10;;;7.40;99.90;;;;;;5041714;28;20048;-51
2023/01/11 10:07:53;;;;;;;15.07;2.00;;;7.40;99.90;;;;;;5036828;28;20045;-49
2023/01/11 10:10:28;;;;;;;14.15;2.58;;;7.50;99.90;;;;;;5063889;28;20056;-46
2023/01/11 10:13:44;;;;;;;12.27;1.65;;;7.60;99.90;;;;;;5064795;28;20127;-46
2023/01/11 10:16:49;;;;;;;12.68;1.23;;;7.70;99.90;;;;;;4986546;28;20067;-44
2023/01/11 10:19:34;;;;;;;12.00;2.08;;;7.80;99.90;;;;;;4987237;28;20060;-44
2023/01/11 10:22:15;;;;;;;14.65;1.42;;;7.80;99.90;;;;;;5063198;28;20147;-45
2023/01/11 10:25:04;;;;;;;9.50;1.05;;;7.90;99.90;;;;;;5064443;28;20559;-44
2023/01/11 10:27:37;;;;;;;22.02;2.15;;;8.00;99.90;;;;;;5064735;28;20053;-47
2023/01/11 10:33:33;;;;;;;18.38;2.53;;;8.00;99.90;;;;;;5065175;28;20144;-45
2023/01/11 10:36:30;;;;;;;12.98;1.80;;;8.10;99.90;;;;;;5065094;28;20051;-45
2023/01/11 10:41:28;;;;;;;13.82;1.10;;;8.10;99.90;;;;;;5064193;28;20048;-44
2023/01/11 10:44:18;;;;;;;13.45;1.35;;;8.10;99.90;;;;;;5062847;28;20051;-48
2023/01/11 10:46:49;;;;;;;17.42;3.13;;;8.10;99.90;;;;;;5064270;28;20044;-47
2023/01/11 10:49:30;;;;;;;14.50;2.00;;;8.20;99.90;;;;;;5047057;28;20791;-49
2023/01/11 10:52:04;;;;;;;15.00;1.90;;;8.30;99.90;;;;;;5064488;28;20041;-46
2023/01/11 10:54:34;;;;;;;15.35;1.55;;;8.50;99.90;;;;;;5064927;28;20076;-48
2023/01/11 10:57:16;;;;;;;19.42;2.22;;;8.70;99.90;;;;;;5064399;28;20120;-45
2023/01/11 11:00:04;;;;;;;19.33;2.28;;;8.70;99.90;;;;;;5064799;28;20052;-46
2023/01/11 11:03:00;;;;;;;22.95;3.00;;;8.70;99.90;;;;;;5064337;28;20059;-45
2023/01/11 11:05:35;;;;;;;16.77;2.50;;;8.70;99.90;;;;;;5045955;28;20742;-44
2023/01/11 11:08:26;;;;;;;18.65;3.15;;;8.70;99.90;;;;;;5054200;28;20102;-46
2023/01/11 11:11:11;;;;;;;15.55;2.72;;;8.70;99.90;;;;;;5063383;28;20707;-44
2023/01/11 11:13:57;;;;;;;18.73;3.95;;;8.70;99.90;;;;;;5045775;28;20784;-43
2023/01/11 11:16:22;;;;;;;23.65;3.22;;;8.60;99.90;;;;;;5045708;28;20101;-45
2023/01/11 11:18:50;;;;;;;18.40;2.90;;;8.50;99.90;;;;;;5063709;28;20048;-44
2023/01/11 11:21:21;;;;;;;18.30;2.60;;;8.50;99.90;;;;;;5028541;28;20410;-45
2023/01/11 11:23:54;;;;;;;24.30;2.78;;;8.40;99.90;;;;;;5045240;28;20055;-44
2023/01/11 11:26:21;;;;;;;21.55;2.47;;;8.40;99.90;;;;;;5062112;28;20048;-44
2023/01/11 11:29:05;;;;;;;18.15;2.40;;;8.30;99.90;;;;;;5063455;28;20040;-46
2023/01/11 11:31:33;;;;;;;22.50;3.95;;;8.50;99.90;;;;;;5063275;28;20044;-46
2023/01/11 11:34:14;;;;;;;21.63;4.65;;;8.60;99.90;;;;;;5062823;28;20052;-46
2023/01/11 11:36:45;;;;;;;16.90;2.75;;;8.80;99.90;;;;;;5062402;28;20464;-48
2023/01/11 11:39:27;;;;;;;23.67;3.17;;;9.20;99.90;;;;;;5062938;28;20145;-47
2023/01/11 11:42:04;;;;;;;22.38;3.53;;;8.90;99.90;;;;;;5062785;28;20036;-47
2023/01/11 11:44:30;;;;;;;18.35;3.10;;;8.80;99.90;;;;;;5062354;28;20044;-45
2023/01/11 11:47:03;;;;;;;22.65;2.67;;;8.70;99.90;;;;;;5044240;28;20044;-45
2023/01/11 11:49:34;;;;;;;15.73;2.47;;;8.60;99.90;;;;;;5062645;28;20044;-45
2023/01/11 11:52:03;;;;;;;15.85;1.80;;;8.50;99.90;;;;;;5044293;28;20119;-45
2023/01/11 11:54:34;;;;;;;13.60;2.13;;;8.50;99.90;;;;;;5062534;28;20052;-40
2023/01/11 11:57:23;;;;;;;17.60;1.90;;;8.50;99.90;;;;;;5062636;28;20043;-39
2023/01/11 12:00:05;;;;;;;16.05;2.00;;;8.60;99.90;;;;;;5062225;28;20557;-39
2023/01/11 12:02:33;;;;;;;17.00;2.35;;;8.60;99.90;;;;;;5062252;28;20098;-40
2023/01/11 12:05:06;;;;;;;18.25;1.98;;;8.50;99.90;;;;;;5043795;28;20098;-40
2023/01/11 12:07:35;;;;;;;20.48;2.70;;;8.40;99.90;;;;;;5052685;28;20143;-47
2023/01/11 12:10:15;;;;;;;16.27;2.35;;;8.20;99.90;;;;;;5062373;28;20049;-46
2023/01/11 12:13:00;;;;;;;21.33;2.97;;;8.20;99.90;;;;;;5062991;28;20799;-44
2023/01/11 12:15:27;;;;;;;21.92;3.13;;;8.20;99.90;;;;;;5044575;28;20102;-46
2023/01/11 12:17:55;;;;;;;19.90;2.53;;;8.20;99.90;;;;;;5062049;28;20080;-43
2023/01/11 12:20:39;;;;;;;13.45;1.90;;;8.20;99.90;;;;;;5062134;28;20051;-44
2023/01/11 12:23:25;;;;;;;18.90;2.95;;;8.20;99.90;;;;;;5043669;28;20136;-44
2023/01/11 12:26:09;;;;;;;24.23;2.15;;;8.10;99.90;;;;;;5062425;28;20447;-43
2023/01/11 12:28:52;;;;;;;17.27;3.90;;;8.30;99.90;;;;;;5063060;28;20229;-47
2023/01/11 12:31:24;;;;;;;17.80;2.50;;;8.30;99.90;;;;;;5062858;28;20505;-49
2023/01/11 12:34:18;;;;;;;21.05;2.00;;;8.30;99.90;;;;;;5044540;28;20136;-49
2023/01/11 12:36:58;;;;;;;15.48;1.80;;;8.30;99.90;;;;;;5062747;28;20044;-49
2023/01/11 12:39:57;;;;;;;18.77;1.65;;;8.80;99.90;;;;;;5044277;28;20486;-47
2023/01/11 12:42:45;;;;;;;22.83;2.03;;;8.20;99.90;;;;;;5044649;28;20113;-45
2023/01/11 12:45:22;;;;;;;14.73;1.77;;;8.20;99.90;;;;;;5063422;28;20486;-44
2023/01/11 12:48:00;;;;;;;19.27;2.30;;;8.20;99.90;;;;;;5065345;28;20836;-44
2023/01/11 12:50:29;;;;;;;20.17;1.73;;;8.60;99.90;;;;;;5065943;28;20090;-44
2023/01/11 12:52:58;;;;;;;14.88;1.63;;;8.30;99.90;;;;;;5065603;28;20818;-42
2023/01/11 12:55:23;;;;;;;15.13;2.20;;;8.30;99.90;;;;;;5065837;28;20123;-47
2023/01/11 12:58:21;;;;;;;15.32;1.95;;;9.20;99.90;;;;;;5065629;28;20213;-45
2023/01/11 13:01:11;;;;;;;9.57;1.27;;;8.30;99.90;;;;;;5065625;28;20055;-44
2023/01/11 13:03:52;;;;;;;14.57;1.30;;;8.20;99.90;;;;;;5065777;28;20044;-44
2023/01/11 13:06:55;;;;;;;18.40;1.80;;;8.10;99.90;;;;;;5056957;28;20048;-42
2023/01/11 13:09:26;;;;;;;15.05;1.60;;;8.10;99.90;;;;;;5065946;28;20079;-42
2023/01/11 13:12:02;;;;;;;15.82;1.35;;;8.40;99.90;;;;;;5065335;28;20057;-43
2023/01/11 13:14:56;;;;;;;18.27;2.08;;;8.30;99.90;;;;;;5066050;28;20095;-48
2023/01/11 13:17:26;;;;;;;24.10;4.15;;;8.30;99.90;;;;;;5065425;28;20049;-47
2023/01/11 13:19:55;;;;;;;21.35;1.45;;;8.50;99.90;;;;;;5065548;28;20053;-44
2023/01/11 13:22:27;;;;;;;14.82;1.85;;;8.70;99.90;;;;;;5066067;28;20045;-46
2023/01/11 13:24:53;;;;;;;14.30;2.05;;;8.50;99.90;;;;;;5065574;28;20132;-45
2023/01/11 13:27:23;;;;;;;15.93;2.33;;;8.30;99.90;;;;;;5065809;28;20063;-47
2023/01/11 13:29:55;;;;;;;19.02;3.15;;;8.30;99.90;;;;;;5065730;28;20044;-47
2023/01/11 13:32:25;;;;;;;12.70;1.92;;;8.10;99.90;;;;;;5066029;28;20233;-44
2023/01/11 13:34:56;;;;;;;21.20;3.67;;;8.10;99.90;;;;;;5065894;28;20409;-46
2023/01/11 13:37:32;;;;;;;18.40;2.97;;;8.00;99.90;;;;;;5064514;28;20094;-46